• Join FlightAware (Why Join?)
  • Login
  • US Flag 
07:23AM EDT


 

Airport Tracker/Info


-or-


 

Live Flight TrackerFlight Track Log ✈ N271LD ✈ 18-May-2014 ✈ KSTP - KENW

Flight Track Log - Related Links

Times and Time Zones

All times are in EDT time to prevent confusion due to time zone crossing. See the N271LD flight status page for this flight to view local times or setup timezone preferences in your user account.

Time Position Orientation Groundspeed Altitude Reporting Facility
EDT Latitude Longitude Course Direction KTS MPH feet Rate Location/Type
08:51PM 44.9333 -92.9667 90° East 135 155 2,400  Level Minneapolis TRACON
08:52PM 44.9472 -92.9297 62° Northeast 131 151 2,500 300 Climbing Minneapolis Center
08:53PM 44.9403 -92.8933 105° East 100 115 3,000 240 Climbing Minneapolis Center
08:54PM 44.9194 -92.8639 135° Southeast 104 120 3,000 360 Level Minneapolis Center
08:55PM 44.9014 -92.8094 115° Southeast 125 144 3,800 780 Climbing Minneapolis Center
08:56PM 44.8914 -92.7647 108° East 123 142 4,700 840 Climbing Minneapolis Center
08:57PM 44.8733 -92.7247 122° Southeast 123 142 5,600 840 Climbing Minneapolis Center
08:58PM 44.8506 -92.6894 132° Southeast 123 142 6,500 840 Climbing Minneapolis Center
08:59PM 44.8258 -92.6589 139° Southeast 121 139 7,400 840 Climbing Minneapolis Center
09:00PM 44.8014 -92.6250 135° Southeast 121 139 8,300 840 Climbing Minneapolis Center
09:01PM 44.7767 -92.5914 136° Southeast 123 142 9,200 840 Climbing Minneapolis Center
09:02PM 44.7458 -92.5506 137° Southeast 124 143 10,100 840 Climbing Minneapolis Center
09:03PM 44.7192 -92.5150 137° Southeast 128 147 11,000 360 Climbing Minneapolis Center
09:04PM 44.6892 -92.4661 131° Southeast 168 193 10,900  Descending Minneapolis Center
09:05PM 44.6619 -92.4150 127° Southeast 167 192 11,000 60 Climbing Minneapolis Center
09:06PM 44.6361 -92.3636 125° Southeast 164 189 11,100  Climbing Minneapolis Center
09:07PM 44.6111 -92.3156 126° Southeast 156 180 11,100  Level Minneapolis Center
09:08PM 44.5814 -92.2575 126° Southeast 155 178 11,100  Level Minneapolis Center
09:09PM 44.5556 -92.2089 127° Southeast 155 178 11,100  Level Minneapolis Center
09:10PM 44.5317 -92.1592 124° Southeast 155 178 11,100  Level Minneapolis Center
09:11PM 44.5083 -92.1072 122° Southeast 155 178 11,100  Level Minneapolis Center
09:12PM 44.4861 -92.0561 121° Southeast 155 178 11,100  Level Minneapolis Center
09:14PM 44.4639 -92.0053 121° Southeast 155 178 11,100 -60 Level Minneapolis Center
09:15PM 44.4419 -91.9519 120° Southeast 155 178 11,000  Descending Minneapolis Center
09:16PM 44.4156 -91.8897 121° Southeast 156 180 11,100  Climbing Minneapolis Center
09:17PM 44.3936 -91.8394 121° Southeast 155 178 11,100  Level Minneapolis Center
09:18PM 44.3711 -91.7867 121° Southeast 155 178 11,100  Level Minneapolis Center
09:19PM 44.3483 -91.7356 122° Southeast 156 180 11,100  Level Minneapolis Center
09:20PM 44.3261 -91.6833 121° Southeast 156 180 11,100  Level Minneapolis Center
09:21PM 44.3042 -91.6319 121° Southeast 156 180 11,100  Level Minneapolis Center
09:22PM 44.2767 -91.5697 122° Southeast 156 180 11,100 -60 Level Minneapolis Center
09:23PM 44.2531 -91.5200 124° Southeast 156 180 11,000  Descending Minneapolis Center
09:24PM 44.2300 -91.4675 121° Southeast 156 180 11,100  Climbing Minneapolis Center
09:25PM 44.2111 -91.4161 117° Southeast 156 180 11,100  Level Minneapolis Center
09:26PM 44.1881 -91.3636 121° Southeast 155 178 11,100  Level Minneapolis Center
09:27PM 44.1658 -91.3136 122° Southeast 156 180 11,100  Level Minneapolis Center
09:28PM 44.1433 -91.2614 121° Southeast 156 180 11,100  Level Minneapolis Center
09:29PM 44.1158 -91.2000 122° Southeast 156 180 11,100  Level Minneapolis Center
09:30PM 44.0939 -91.1481 120° Southeast 156 180 11,100  Level Minneapolis Center
09:31PM 44.0706 -91.0961 122° Southeast 156 180 11,100  Level Minneapolis Center
09:32PM 44.0453 -91.0389 122° Southeast 157 181 11,100  Level Minneapolis Center
09:33PM 44.0211 -90.9842 122° Southeast 158 182 11,100  Level Minneapolis Center
09:34PM 43.9986 -90.9336 122° Southeast 158 182 11,100  Level Minneapolis Center
09:35PM 43.9750 -90.8797 121° Southeast 158 182 11,100 -60 Level Minneapolis Center
09:36PM 43.9500 -90.8247 122° Southeast 159 183 11,000 -60 Descending Minneapolis Center
09:37PM 43.9261 -90.7692 121° Southeast 159 183 11,000  Level Minneapolis Center
09:38PM 43.9019 -90.7156 122° Southeast 159 183 11,000  Level Minneapolis Center
09:39PM 43.8797 -90.6658 122° Southeast 159 183 11,000  Level Minneapolis Center
09:40PM 43.8558 -90.6114 121° Southeast 159 183 11,000  Level Minneapolis Center
09:41PM 43.8319 -90.5567 121° Southeast 159 183 11,000  Level Minneapolis Center
09:42PM 43.8069 -90.5056 124° Southeast 157 181 11,000  Level Minneapolis Center
09:43PM 43.7856 -90.4558 121° Southeast 157 181 11,000  Level Minneapolis Center
09:44PM 43.7622 -90.4033 122° Southeast 157 181 11,000  Level Minneapolis Center
09:45PM 43.7383 -90.3508 122° Southeast 156 180 11,000  Level Minneapolis Center
09:46PM 43.7147 -90.2983 122° Southeast 156 180 11,000  Level Minneapolis Center
09:47PM 43.6922 -90.2500 123° Southeast 156 180 11,000  Level Minneapolis Center
09:48PM 43.6683 -90.1972 122° Southeast 155 178 11,000  Level Minneapolis Center
09:49PM 43.6450 -90.1453 122° Southeast 155 178 11,000  Level Minneapolis Center
09:50PM 43.6208 -90.0931 123° Southeast 155 178 11,000  Level Minneapolis Center
09:51PM 43.6039 -90.0556 122° Southeast 157 181 11,000  Level Chicago Center
09:52PM 43.5803 -90.0056 123° Southeast 157 181 11,000  Level Chicago Center
09:53PM 43.5569 -89.9564 123° Southeast 157 181 11,000  Level Chicago Center
09:54PM 43.5339 -89.9061 122° Southeast 156 180 11,000  Level Chicago Center
09:55PM 43.5083 -89.8461 120° Southeast 156 180 11,000 -180 Level Chicago Center
09:56PM 43.4842 -89.7950 123° Southeast 156 180 10,700 -420 Descending Chicago Center
09:57PM 43.4583 -89.7414 124° Southeast 163 188 10,200 -600 Descending Chicago Center
09:59PM 43.4331 -89.6867 122° Southeast 167 192 9,600 -600 Descending Chicago Center
10:00PM 43.4092 -89.6358 123° Southeast 166 191 9,000 -540 Descending Chicago Center
10:01PM 43.3856 -89.5833 122° Southeast 165 190 8,500 -600 Descending Chicago Center
10:02PM 43.3614 -89.5325 123° Southeast 164 189 7,900 -600 Descending Chicago Center
10:03PM 43.3372 -89.4806 123° Southeast 164 189 7,300 -660 Descending Chicago Center
10:04PM 43.3086 -89.4197 123° Southeast 163 188 6,600 -660 Descending Chicago Center
10:05PM 43.2844 -89.3692 123° Southeast 162 186 6,000 -600 Descending Chicago Center
10:06PM 43.2608 -89.3186 123° Southeast 162 186 5,400 -540 Descending Chicago Center
10:07PM 43.2386 -89.2681 121° Southeast 161 185 5,000 -240 Descending Chicago Center
10:08PM 43.2164 -89.2222 124° Southeast 153 176 5,000  Level Chicago Center
10:09PM 43.1956 -89.1783 123° Southeast 146 168 5,000  Level Chicago Center
10:10PM 43.1750 -89.1336 122° Southeast 144 166 5,000  Level Chicago Center
10:11PM 43.1542 -89.0894 123° Southeast 142 163 5,000  Level Chicago Center
10:12PM 43.1331 -89.0444 123° Southeast 142 163 5,000  Level Chicago Center
10:13PM 43.1081 -88.9919 123° Southeast 142 163 5,000  Level Chicago Center
10:14PM 43.0875 -88.9475 122° Southeast 141 162 5,000  Level Chicago Center
10:15PM 43.0661 -88.9031 123° Southeast 141 162 5,000  Level Chicago Center
10:16PM 43.0444 -88.8586 124° Southeast 141 162 5,000  Level Chicago Center
10:17PM 43.0239 -88.8142 122° Southeast 141 162 5,000  Level Chicago Center
10:18PM 43.0031 -88.7703 123° Southeast 141 162 5,000  Level Chicago Center
10:19PM 42.9817 -88.7264 124° Southeast 141 162 5,000  Level Chicago Center
10:20PM 42.9619 -88.6828 122° Southeast 141 162 5,000  Level Chicago Center
10:21PM 42.9406 -88.6392 124° Southeast 141 162 5,000  Level Chicago Center
10:22PM 42.9150 -88.5864 123° Southeast 141 162 5,000 -240 Level Chicago Center
10:23PM 42.8917 -88.5408 125° Southeast 141 162 4,600 -420 Descending Chicago Center
10:24PM 42.8692 -88.4939 123° Southeast 144 166 4,200 -300 Descending Chicago Center
10:25PM 42.8458 -88.4469 124° Southeast 145 167 4,000 -120 Descending Chicago Center
10:26PM 42.8256 -88.4011 121° Southeast 145 167 4,000 -60 Level Chicago Center
10:27PM 42.8044 -88.3594 125° Southeast 143 165 3,900 -300 Descending Chicago Center
10:28PM 42.7819 -88.3131 123° Southeast 143 165 3,400 -480 Descending Chicago Center
10:29PM 42.7583 -88.2650 124° Southeast 146 168 3,000 -240 Descending Chicago Center
10:30PM 42.7367 -88.2233 125° Southeast 145 167 3,000  Level Chicago Center
10:31PM 42.7169 -88.1811 122° Southeast 139 160 3,000 -60 Level Chicago Center
10:32PM 42.6944 -88.1300 121° Southeast 134 154 2,900 -180 Descending Chicago Center
10:33PM 42.6781 -88.0797 114° Southeast 136 157 2,700 -240 Descending Chicago Center
10:34PM 42.6642 -88.0292 110° East 139 160 2,500 -300 Descending Chicago Center
10:35PM 42.6528 -87.9836 109° East 138 159 2,200 -420 Descending Chicago Center
10:36PM 42.6353 -87.9533 128° Southeast 121 139 1,700 -540 Descending Chicago Center
10:39PM 42.5957 -87.9278 124° Southeast  Level Estimated